sensor_id;sensor_type;location;lat;lon;timestamp;P1;durP1;ratioP1;P2;durP2;ratioP2
5981;SDS011;3018;48.730;9.336;2023-02-21T00:00:42;3.58;;;3.28;;
5981;SDS011;3018;48.730;9.336;2023-02-21T00:03:28;4.15;;;3.65;;
5981;SDS011;3018;48.730;9.336;2023-02-21T00:06:12;4.15;;;3.60;;
5981;SDS011;3018;48.730;9.336;2023-02-21T00:08:55;4.45;;;4.05;;
5981;SDS011;3018;48.730;9.336;2023-02-21T00:11:40;4.45;;;3.70;;
5981;SDS011;3018;48.730;9.336;2023-02-21T00:14:25;6.97;;;4.63;;
5981;SDS011;3018;48.730;9.336;2023-02-21T00:17:08;7.18;;;3.97;;
5981;SDS011;3018;48.730;9.336;2023-02-21T00:19:54;6.78;;;4.32;;
5981;SDS011;3018;48.730;9.336;2023-02-21T00:22:38;6.53;;;4.25;;
5981;SDS011;3018;48.730;9.336;2023-02-21T00:25:22;9.68;;;4.47;;
5981;SDS011;3018;48.730;9.336;2023-02-21T00:28:06;5.55;;;4.53;;
5981;SDS011;3018;48.730;9.336;2023-02-21T00:30:50;6.07;;;4.47;;
5981;SDS011;3018;48.730;9.336;2023-02-21T00:33:34;10.80;;;4.90;;
5981;SDS011;3018;48.730;9.336;2023-02-21T00:36:19;6.18;;;4.50;;
5981;SDS011;3018;48.730;9.336;2023-02-21T00:39:03;9.48;;;4.68;;
5981;SDS011;3018;48.730;9.336;2023-02-21T00:41:47;10.20;;;4.88;;
5981;SDS011;3018;48.730;9.336;2023-02-21T00:44:31;5.88;;;4.63;;
5981;SDS011;3018;48.730;9.336;2023-02-21T00:47:15;7.28;;;4.50;;
5981;SDS011;3018;48.730;9.336;2023-02-21T00:49:59;10.05;;;5.63;;
5981;SDS011;3018;48.730;9.336;2023-02-21T00:52:44;11.85;;;5.50;;
5981;SDS011;3018;48.730;9.336;2023-02-21T00:55:28;6.10;;;5.07;;
5981;SDS011;3018;48.730;9.336;2023-02-21T00:58:12;8.50;;;4.85;;
5981;SDS011;3018;48.730;9.336;2023-02-21T01:00:56;8.55;;;5.03;;
5981;SDS011;3018;48.730;9.336;2023-02-21T01:03:40;5.82;;;4.57;;
5981;SDS011;3018;48.730;9.336;2023-02-21T01:06:24;7.80;;;4.38;;
5981;SDS011;3018;48.730;9.336;2023-02-21T01:09:09;8.20;;;5.20;;
5981;SDS011;3018;48.730;9.336;2023-02-21T01:11:53;7.93;;;5.10;;
5981;SDS011;3018;48.730;9.336;2023-02-21T01:14:37;5.47;;;4.30;;
5981;SDS011;3018;48.730;9.336;2023-02-21T01:17:21;7.45;;;4.90;;
5981;SDS011;3018;48.730;9.336;2023-02-21T01:20:06;6.00;;;4.88;;
5981;SDS011;3018;48.730;9.336;2023-02-21T01:22:50;5.38;;;4.85;;
5981;SDS011;3018;48.730;9.336;2023-02-21T01:25:35;5.50;;;4.82;;
5981;SDS011;3018;48.730;9.336;2023-02-21T01:28:19;9.13;;;5.60;;
5981;SDS011;3018;48.730;9.336;2023-02-21T01:31:03;7.72;;;4.63;;
5981;SDS011;3018;48.730;9.336;2023-02-21T01:33:47;11.70;;;5.70;;
5981;SDS011;3018;48.730;9.336;2023-02-21T01:36:31;10.50;;;5.82;;
5981;SDS011;3018;48.730;9.336;2023-02-21T01:39:15;10.48;;;6.00;;
5981;SDS011;3018;48.730;9.336;2023-02-21T01:42:00;9.55;;;6.38;;
5981;SDS011;3018;48.730;9.336;2023-02-21T01:44:45;11.52;;;6.15;;
5981;SDS011;3018;48.730;9.336;2023-02-21T01:47:29;10.32;;;6.57;;
5981;SDS011;3018;48.730;9.336;2023-02-21T01:50:15;7.72;;;5.57;;
5981;SDS011;3018;48.730;9.336;2023-02-21T01:53:00;9.25;;;5.93;;
5981;SDS011;3018;48.730;9.336;2023-02-21T01:55:46;8.73;;;5.70;;
5981;SDS011;3018;48.730;9.336;2023-02-21T01:58:31;13.10;;;6.43;;
5981;SDS011;3018;48.730;9.336;2023-02-21T02:01:17;9.02;;;5.80;;
5981;SDS011;3018;48.730;9.336;2023-02-21T02:04:03;8.90;;;5.65;;
5981;SDS011;3018;48.730;9.336;2023-02-21T02:06:47;10.20;;;6.35;;
5981;SDS011;3018;48.730;9.336;2023-02-21T02:09:31;10.90;;;6.28;;
5981;SDS011;3018;48.730;9.336;2023-02-21T02:12:31;8.18;;;5.60;;
5981;SDS011;3018;48.730;9.336;2023-02-21T02:15:05;8.70;;;5.55;;
5981;SDS011;3018;48.730;9.336;2023-02-21T02:17:35;9.18;;;5.43;;
5981;SDS011;3018;48.730;9.336;2023-02-21T02:25:45;7.65;;;5.93;;
5981;SDS011;3018;48.730;9.336;2023-02-21T02:28:20;11.52;;;5.68;;
5981;SDS011;3018;48.730;9.336;2023-02-21T02:30:57;9.50;;;5.47;;
5981;SDS011;3018;48.730;9.336;2023-02-21T02:36:16;7.07;;;5.90;;
5981;SDS011;3018;48.730;9.336;2023-02-21T02:38:47;8.20;;;5.57;;
5981;SDS011;3018;48.730;9.336;2023-02-21T02:41:19;9.02;;;6.07;;
5981;SDS011;3018;48.730;9.336;2023-02-21T02:43:48;7.47;;;5.75;;
5981;SDS011;3018;48.730;9.336;2023-02-21T02:46:16;6.65;;;5.90;;
5981;SDS011;3018;48.730;9.336;2023-02-21T02:48:45;8.10;;;5.90;;
5981;SDS011;3018;48.730;9.336;2023-02-21T02:51:13;11.00;;;6.10;;
5981;SDS011;3018;48.730;9.336;2023-02-21T02:53:41;10.30;;;5.43;;
5981;SDS011;3018;48.730;9.336;2023-02-21T02:56:09;14.18;;;6.22;;
5981;SDS011;3018;48.730;9.336;2023-02-21T02:58:36;10.98;;;6.25;;
5981;SDS011;3018;48.730;9.336;2023-02-21T03:01:07;8.27;;;6.28;;
5981;SDS011;3018;48.730;9.336;2023-02-21T03:03:45;8.93;;;6.35;;
5981;SDS011;3018;48.730;9.336;2023-02-21T03:06:22;10.35;;;6.00;;
5981;SDS011;3018;48.730;9.336;2023-02-21T03:08:55;6.90;;;5.45;;
5981;SDS011;3018;48.730;9.336;2023-02-21T03:11:26;9.35;;;6.10;;
5981;SDS011;3018;48.730;9.336;2023-02-21T03:13:55;11.23;;;6.40;;
5981;SDS011;3018;48.730;9.336;2023-02-21T03:16:23;9.95;;;6.18;;
5981;SDS011;3018;48.730;9.336;2023-02-21T03:18:51;12.70;;;6.40;;
5981;SDS011;3018;48.730;9.336;2023-02-21T03:21:19;11.82;;;6.25;;
5981;SDS011;3018;48.730;9.336;2023-02-21T03:23:47;10.45;;;6.22;;
5981;SDS011;3018;48.730;9.336;2023-02-21T03:26:16;7.97;;;5.93;;
5981;SDS011;3018;48.730;9.336;2023-02-21T03:28:43;8.68;;;5.95;;
5981;SDS011;3018;48.730;9.336;2023-02-21T03:31:09;6.43;;;5.30;;
5981;SDS011;3018;48.730;9.336;2023-02-21T03:33:39;9.63;;;5.82;;
5981;SDS011;3018;48.730;9.336;2023-02-21T03:36:06;7.07;;;5.50;;
5981;SDS011;3018;48.730;9.336;2023-02-21T03:38:33;8.63;;;5.90;;
5981;SDS011;3018;48.730;9.336;2023-02-21T03:41:00;7.90;;;5.57;;
5981;SDS011;3018;48.730;9.336;2023-02-21T03:43:27;9.73;;;6.03;;
5981;SDS011;3018;48.730;9.336;2023-02-21T03:45:53;10.70;;;5.85;;
5981;SDS011;3018;48.730;9.336;2023-02-21T03:48:20;15.13;;;6.28;;
5981;SDS011;3018;48.730;9.336;2023-02-21T03:50:46;9.27;;;5.65;;
5981;SDS011;3018;48.730;9.336;2023-02-21T03:53:12;9.70;;;5.53;;
5981;SDS011;3018;48.730;9.336;2023-02-21T03:55:38;8.70;;;5.72;;
5981;SDS011;3018;48.730;9.336;2023-02-21T03:58:05;11.32;;;6.97;;
5981;SDS011;3018;48.730;9.336;2023-02-21T04:00:32;9.27;;;7.47;;
5981;SDS011;3018;48.730;9.336;2023-02-21T04:02:58;13.82;;;8.00;;
5981;SDS011;3018;48.730;9.336;2023-02-21T04:05:25;15.13;;;7.60;;
5981;SDS011;3018;48.730;9.336;2023-02-21T04:07:51;11.05;;;7.45;;
5981;SDS011;3018;48.730;9.336;2023-02-21T04:10:17;10.27;;;7.57;;
5981;SDS011;3018;48.730;9.336;2023-02-21T04:12:43;10.05;;;6.50;;
5981;SDS011;3018;48.730;9.336;2023-02-21T04:15:10;10.38;;;6.28;;
5981;SDS011;3018;48.730;9.336;2023-02-21T04:17:38;10.00;;;6.70;;
5981;SDS011;3018;48.730;9.336;2023-02-21T04:20:04;10.88;;;6.70;;
5981;SDS011;3018;48.730;9.336;2023-02-21T04:22:31;8.18;;;6.07;;
5981;SDS011;3018;48.730;9.336;2023-02-21T04:24:57;10.27;;;5.95;;
5981;SDS011;3018;48.730;9.336;2023-02-21T04:27:23;10.10;;;6.70;;
5981;SDS011;3018;48.730;9.336;2023-02-21T04:29:51;8.63;;;6.28;;
5981;SDS011;3018;48.730;9.336;2023-02-21T04:32:17;10.35;;;6.28;;
5981;SDS011;3018;48.730;9.336;2023-02-21T04:34:44;10.85;;;6.57;;
5981;SDS011;3018;48.730;9.336;2023-02-21T04:37:11;13.60;;;7.13;;
5981;SDS011;3018;48.730;9.336;2023-02-21T04:39:37;8.82;;;6.43;;
5981;SDS011;3018;48.730;9.336;2023-02-21T04:42:03;8.52;;;5.80;;
5981;SDS011;3018;48.730;9.336;2023-02-21T04:44:29;12.35;;;5.55;;
5981;SDS011;3018;48.730;9.336;2023-02-21T04:46:56;5.75;;;5.18;;
5981;SDS011;3018;48.730;9.336;2023-02-21T04:49:22;10.95;;;6.10;;
5981;SDS011;3018;48.730;9.336;2023-02-21T04:51:52;8.88;;;5.63;;
5981;SDS011;3018;48.730;9.336;2023-02-21T04:54:19;10.95;;;6.13;;
5981;SDS011;3018;48.730;9.336;2023-02-21T04:56:45;7.43;;;5.70;;
5981;SDS011;3018;48.730;9.336;2023-02-21T04:59:11;9.93;;;5.10;;
5981;SDS011;3018;48.730;9.336;2023-02-21T05:01:37;7.30;;;4.93;;
5981;SDS011;3018;48.730;9.336;2023-02-21T05:04:04;6.47;;;5.30;;
5981;SDS011;3018;48.730;9.336;2023-02-21T05:06:31;9.80;;;5.10;;
5981;SDS011;3018;48.730;9.336;2023-02-21T05:08:58;4.90;;;4.40;;
5981;SDS011;3018;48.730;9.336;2023-02-21T05:11:25;5.50;;;4.85;;
5981;SDS011;3018;48.730;9.336;2023-02-21T05:13:52;5.35;;;4.55;;
5981;SDS011;3018;48.730;9.336;2023-02-21T05:16:18;9.20;;;4.57;;
5981;SDS011;3018;48.730;9.336;2023-02-21T05:18:45;9.80;;;5.45;;
5981;SDS011;3018;48.730;9.336;2023-02-21T05:21:12;5.07;;;4.53;;
5981;SDS011;3018;48.730;9.336;2023-02-21T05:23:38;7.40;;;4.90;;
5981;SDS011;3018;48.730;9.336;2023-02-21T05:26:07;5.97;;;4.50;;
5981;SDS011;3018;48.730;9.336;2023-02-21T05:28:34;4.47;;;4.13;;
5981;SDS011;3018;48.730;9.336;2023-02-21T05:31:00;4.60;;;4.20;;
5981;SDS011;3018;48.730;9.336;2023-02-21T05:33:26;5.93;;;4.68;;
5981;SDS011;3018;48.730;9.336;2023-02-21T05:35:53;6.15;;;4.78;;
5981;SDS011;3018;48.730;9.336;2023-02-21T05:38:20;5.90;;;4.38;;
5981;SDS011;3018;48.730;9.336;2023-02-21T05:40:47;10.55;;;4.38;;
5981;SDS011;3018;48.730;9.336;2023-02-21T05:43:14;6.03;;;4.55;;
5981;SDS011;3018;48.730;9.336;2023-02-21T05:45:40;7.95;;;4.90;;
5981;SDS011;3018;48.730;9.336;2023-02-21T05:48:07;5.53;;;4.15;;
5981;SDS011;3018;48.730;9.336;2023-02-21T05:50:33;7.90;;;4.90;;
5981;SDS011;3018;48.730;9.336;2023-02-21T05:52:59;6.00;;;5.35;;
5981;SDS011;3018;48.730;9.336;2023-02-21T05:55:26;5.68;;;4.82;;
5981;SDS011;3018;48.730;9.336;2023-02-21T05:57:52;5.30;;;4.80;;
5981;SDS011;3018;48.730;9.336;2023-02-21T06:00:21;7.47;;;5.45;;
5981;SDS011;3018;48.730;9.336;2023-02-21T06:02:48;6.35;;;5.28;;
5981;SDS011;3018;48.730;9.336;2023-02-21T06:05:14;6.53;;;4.88;;
5981;SDS011;3018;48.730;9.336;2023-02-21T06:07:41;12.75;;;5.47;;
5981;SDS011;3018;48.730;9.336;2023-02-21T06:10:07;8.00;;;5.07;;
5981;SDS011;3018;48.730;9.336;2023-02-21T06:12:34;6.90;;;4.90;;
5981;SDS011;3018;48.730;9.336;2023-02-21T06:15:00;7.47;;;5.15;;
5981;SDS011;3018;48.730;9.336;2023-02-21T06:17:28;7.50;;;5.47;;
5981;SDS011;3018;48.730;9.336;2023-02-21T06:19:54;5.97;;;5.10;;
5981;SDS011;3018;48.730;9.336;2023-02-21T06:22:20;8.93;;;6.03;;
5981;SDS011;3018;48.730;9.336;2023-02-21T06:24:46;10.30;;;6.03;;
5981;SDS011;3018;48.730;9.336;2023-02-21T06:27:13;13.15;;;6.80;;
5981;SDS011;3018;48.730;9.336;2023-02-21T06:29:39;7.65;;;6.00;;
5981;SDS011;3018;48.730;9.336;2023-02-21T06:32:05;9.00;;;5.40;;
5981;SDS011;3018;48.730;9.336;2023-02-21T06:34:34;11.85;;;6.05;;
5981;SDS011;3018;48.730;9.336;2023-02-21T06:37:00;14.15;;;6.00;;
5981;SDS011;3018;48.730;9.336;2023-02-21T06:39:26;12.82;;;6.68;;
5981;SDS011;3018;48.730;9.336;2023-02-21T06:41:53;7.35;;;6.00;;
5981;SDS011;3018;48.730;9.336;2023-02-21T06:44:19;10.98;;;7.20;;
5981;SDS011;3018;48.730;9.336;2023-02-21T06:46:46;12.40;;;8.05;;
5981;SDS011;3018;48.730;9.336;2023-02-21T06:49:14;10.20;;;6.82;;
5981;SDS011;3018;48.730;9.336;2023-02-21T06:51:42;12.73;;;6.90;;
5981;SDS011;3018;48.730;9.336;2023-02-21T06:54:08;10.75;;;5.68;;
5981;SDS011;3018;48.730;9.336;2023-02-21T06:56:34;16.23;;;6.40;;
5981;SDS011;3018;48.730;9.336;2023-02-21T06:59:01;11.43;;;5.78;;
5981;SDS011;3018;48.730;9.336;2023-02-21T07:01:28;8.93;;;6.28;;
5981;SDS011;3018;48.730;9.336;2023-02-21T07:03:55;11.32;;;6.40;;
5981;SDS011;3018;48.730;9.336;2023-02-21T07:06:21;12.00;;;7.13;;
5981;SDS011;3018;48.730;9.336;2023-02-21T07:08:49;18.60;;;6.75;;
5981;SDS011;3018;48.730;9.336;2023-02-21T07:11:17;13.93;;;6.75;;
5981;SDS011;3018;48.730;9.336;2023-02-21T07:13:45;14.13;;;6.53;;
5981;SDS011;3018;48.730;9.336;2023-02-21T07:16:12;19.08;;;7.07;;
5981;SDS011;3018;48.730;9.336;2023-02-21T07:18:38;12.43;;;6.75;;
5981;SDS011;3018;48.730;9.336;2023-02-21T07:21:05;15.63;;;6.63;;
5981;SDS011;3018;48.730;9.336;2023-02-21T07:23:31;12.02;;;6.90;;
5981;SDS011;3018;48.730;9.336;2023-02-21T07:25:58;20.10;;;6.78;;
5981;SDS011;3018;48.730;9.336;2023-02-21T07:28:25;14.07;;;6.43;;
5981;SDS011;3018;48.730;9.336;2023-02-21T07:30:51;13.82;;;7.18;;
5981;SDS011;3018;48.730;9.336;2023-02-21T07:33:17;12.52;;;7.13;;
5981;SDS011;3018;48.730;9.336;2023-02-21T07:35:44;14.13;;;6.93;;
5981;SDS011;3018;48.730;9.336;2023-02-21T07:38:11;20.27;;;6.65;;
5981;SDS011;3018;48.730;9.336;2023-02-21T07:40:44;16.58;;;6.90;;
5981;SDS011;3018;48.730;9.336;2023-02-21T07:43:11;12.60;;;6.93;;
5981;SDS011;3018;48.730;9.336;2023-02-21T07:45:38;11.73;;;6.45;;
5981;SDS011;3018;48.730;9.336;2023-02-21T07:48:04;13.43;;;6.78;;
5981;SDS011;3018;48.730;9.336;2023-02-21T07:50:30;9.68;;;6.28;;
5981;SDS011;3018;48.730;9.336;2023-02-21T07:52:57;12.77;;;6.40;;
5981;SDS011;3018;48.730;9.336;2023-02-21T07:55:23;17.55;;;7.75;;
5981;SDS011;3018;48.730;9.336;2023-02-21T07:57:50;17.23;;;7.65;;
5981;SDS011;3018;48.730;9.336;2023-02-21T08:00:18;14.32;;;7.45;;
5981;SDS011;3018;48.730;9.336;2023-02-21T08:02:45;12.10;;;7.47;;
5981;SDS011;3018;48.730;9.336;2023-02-21T08:05:13;13.30;;;7.00;;
5981;SDS011;3018;48.730;9.336;2023-02-21T08:07:40;14.48;;;6.70;;
5981;SDS011;3018;48.730;9.336;2023-02-21T08:10:07;20.05;;;6.88;;
5981;SDS011;3018;48.730;9.336;2023-02-21T08:12:33;18.35;;;6.82;;
5981;SDS011;3018;48.730;9.336;2023-02-21T08:14:59;16.45;;;6.57;;
5981;SDS011;3018;48.730;9.336;2023-02-21T08:17:27;12.43;;;6.10;;
5981;SDS011;3018;48.730;9.336;2023-02-21T08:19:53;11.60;;;6.22;;
5981;SDS011;3018;48.730;9.336;2023-02-21T08:22:19;11.75;;;5.78;;
5981;SDS011;3018;48.730;9.336;2023-02-21T08:24:47;12.52;;;5.88;;
5981;SDS011;3018;48.730;9.336;2023-02-21T08:27:13;9.13;;;5.78;;
5981;SDS011;3018;48.730;9.336;2023-02-21T08:29:40;15.43;;;5.95;;
5981;SDS011;3018;48.730;9.336;2023-02-21T08:32:06;10.63;;;5.05;;
5981;SDS011;3018;48.730;9.336;2023-02-21T08:34:34;6.65;;;4.95;;
5981;SDS011;3018;48.730;9.336;2023-02-21T08:37:00;9.38;;;4.80;;
5981;SDS011;3018;48.730;9.336;2023-02-21T08:39:30;7.93;;;4.90;;
5981;SDS011;3018;48.730;9.336;2023-02-21T08:41:57;10.48;;;5.95;;
5981;SDS011;3018;48.730;9.336;2023-02-21T08:44:23;8.30;;;4.60;;
5981;SDS011;3018;48.730;9.336;2023-02-21T08:46:49;6.13;;;4.50;;
5981;SDS011;3018;48.730;9.336;2023-02-21T08:49:15;7.30;;;5.25;;
5981;SDS011;3018;48.730;9.336;2023-02-21T08:51:43;14.70;;;4.93;;
5981;SDS011;3018;48.730;9.336;2023-02-21T08:54:09;6.88;;;4.95;;
5981;SDS011;3018;48.730;9.336;2023-02-21T08:56:36;9.93;;;5.05;;
5981;SDS011;3018;48.730;9.336;2023-02-21T08:59:02;8.90;;;4.93;;
5981;SDS011;3018;48.730;9.336;2023-02-21T09:01:30;6.88;;;4.95;;
5981;SDS011;3018;48.730;9.336;2023-02-21T09:03:56;10.50;;;4.57;;
5981;SDS011;3018;48.730;9.336;2023-02-21T09:06:23;7.55;;;3.88;;
5981;SDS011;3018;48.730;9.336;2023-02-21T09:08:50;5.20;;;4.70;;
5981;SDS011;3018;48.730;9.336;2023-02-21T09:11:17;11.73;;;4.45;;
5981;SDS011;3018;48.730;9.336;2023-02-21T09:13:43;7.28;;;4.78;;
5981;SDS011;3018;48.730;9.336;2023-02-21T09:16:09;11.38;;;4.97;;
5981;SDS011;3018;48.730;9.336;2023-02-21T09:18:35;7.38;;;4.80;;
5981;SDS011;3018;48.730;9.336;2023-02-21T09:21:02;7.93;;;4.68;;
5981;SDS011;3018;48.730;9.336;2023-02-21T09:23:29;12.13;;;4.72;;
5981;SDS011;3018;48.730;9.336;2023-02-21T09:25:57;6.07;;;4.57;;
5981;SDS011;3018;48.730;9.336;2023-02-21T09:28:23;9.05;;;4.78;;
5981;SDS011;3018;48.730;9.336;2023-02-21T09:30:49;4.75;;;4.03;;
5981;SDS011;3018;48.730;9.336;2023-02-21T09:33:16;7.15;;;4.53;;
5981;SDS011;3018;48.730;9.336;2023-02-21T09:35:42;9.25;;;4.63;;
5981;SDS011;3018;48.730;9.336;2023-02-21T09:38:08;8.32;;;4.85;;
5981;SDS011;3018;48.730;9.336;2023-02-21T09:40:35;10.25;;;4.85;;
5981;SDS011;3018;48.730;9.336;2023-02-21T09:43:06;7.32;;;4.78;;
5981;SDS011;3018;48.730;9.336;2023-02-21T09:45:34;8.63;;;4.53;;
5981;SDS011;3018;48.730;9.336;2023-02-21T09:48:01;12.13;;;4.40;;
5981;SDS011;3018;48.730;9.336;2023-02-21T09:50:31;7.75;;;4.93;;
5981;SDS011;3018;48.730;9.336;2023-02-21T09:52:59;8.07;;;4.35;;
5981;SDS011;3018;48.730;9.336;2023-02-21T09:55:27;9.95;;;4.18;;
5981;SDS011;3018;48.730;9.336;2023-02-21T09:57:53;8.90;;;4.28;;
5981;SDS011;3018;48.730;9.336;2023-02-21T10:00:22;12.55;;;4.32;;
5981;SDS011;3018;48.730;9.336;2023-02-21T10:02:51;12.75;;;4.03;;
5981;SDS011;3018;48.730;9.336;2023-02-21T10:05:20;9.82;;;4.00;;
5981;SDS011;3018;48.730;9.336;2023-02-21T10:07:53;12.20;;;4.75;;
5981;SDS011;3018;48.730;9.336;2023-02-21T10:10:24;11.23;;;4.28;;
5981;SDS011;3018;48.730;9.336;2023-02-21T10:12:54;8.20;;;4.88;;
5981;SDS011;3018;48.730;9.336;2023-02-21T10:15:28;14.05;;;4.82;;
5981;SDS011;3018;48.730;9.336;2023-02-21T10:18:01;10.00;;;4.40;;
5981;SDS011;3018;48.730;9.336;2023-02-21T10:20:28;11.73;;;3.55;;
5981;SDS011;3018;48.730;9.336;2023-02-21T10:22:56;4.07;;;3.33;;
5981;SDS011;3018;48.730;9.336;2023-02-21T10:25:23;10.98;;;4.05;;
5981;SDS011;3018;48.730;9.336;2023-02-21T10:27:52;4.97;;;3.72;;
5981;SDS011;3018;48.730;9.336;2023-02-21T10:30:22;13.35;;;4.00;;
5981;SDS011;3018;48.730;9.336;2023-02-21T10:32:50;6.05;;;3.85;;
5981;SDS011;3018;48.730;9.336;2023-02-21T10:35:17;6.05;;;3.30;;
5981;SDS011;3018;48.730;9.336;2023-02-21T10:37:44;6.40;;;3.60;;
5981;SDS011;3018;48.730;9.336;2023-02-21T10:40:16;5.20;;;3.45;;
5981;SDS011;3018;48.730;9.336;2023-02-21T10:42:47;11.13;;;3.80;;
5981;SDS011;3018;48.730;9.336;2023-02-21T10:45:15;4.57;;;3.58;;
5981;SDS011;3018;48.730;9.336;2023-02-21T10:47:44;11.40;;;3.97;;
5981;SDS011;3018;48.730;9.336;2023-02-21T10:50:14;8.18;;;3.33;;
5981;SDS011;3018;48.730;9.336;2023-02-21T10:52:45;8.88;;;3.35;;
5981;SDS011;3018;48.730;9.336;2023-02-21T10:55:14;6.72;;;3.53;;
5981;SDS011;3018;48.730;9.336;2023-02-21T10:57:41;8.70;;;3.80;;
5981;SDS011;3018;48.730;9.336;2023-02-21T11:00:08;9.88;;;4.00;;
5981;SDS011;3018;48.730;9.336;2023-02-21T11:02:36;6.82;;;3.00;;
5981;SDS011;3018;48.730;9.336;2023-02-21T11:05:08;6.45;;;3.25;;
5981;SDS011;3018;48.730;9.336;2023-02-21T11:07:36;3.78;;;3.45;;
5981;SDS011;3018;48.730;9.336;2023-02-21T11:10:07;6.18;;;3.70;;
5981;SDS011;3018;48.730;9.336;2023-02-21T11:12:53;5.55;;;3.45;;
5981;SDS011;3018;48.730;9.336;2023-02-21T11:15:26;5.07;;;3.58;;
5981;SDS011;3018;48.730;9.336;2023-02-21T11:18:01;5.90;;;3.17;;
5981;SDS011;3018;48.730;9.336;2023-02-21T11:20:27;8.30;;;3.08;;
5981;SDS011;3018;48.730;9.336;2023-02-21T11:22:55;6.55;;;3.05;;
5981;SDS011;3018;48.730;9.336;2023-02-21T11:25:23;7.40;;;3.00;;
5981;SDS011;3018;48.730;9.336;2023-02-21T11:28:04;6.38;;;3.17;;
5981;SDS011;3018;48.730;9.336;2023-02-21T11:30:31;4.85;;;2.92;;
5981;SDS011;3018;48.730;9.336;2023-02-21T11:32:57;9.70;;;3.03;;
5981;SDS011;3018;48.730;9.336;2023-02-21T11:35:25;3.95;;;3.00;;
5981;SDS011;3018;48.730;9.336;2023-02-21T11:37:53;6.63;;;2.83;;
5981;SDS011;3018;48.730;9.336;2023-02-21T11:40:22;6.80;;;2.67;;
5981;SDS011;3018;48.730;9.336;2023-02-21T11:42:49;3.95;;;1.67;;
5981;SDS011;3018;48.730;9.336;2023-02-21T11:45:18;2.88;;;1.55;;
5981;SDS011;3018;48.730;9.336;2023-02-21T11:47:49;3.25;;;1.60;;
5981;SDS011;3018;48.730;9.336;2023-02-21T11:50:20;9.27;;;2.25;;
5981;SDS011;3018;48.730;9.336;2023-02-21T11:52:48;4.28;;;1.80;;
5981;SDS011;3018;48.730;9.336;2023-02-21T11:55:16;0.90;;;0.77;;
5981;SDS011;3018;48.730;9.336;2023-02-21T11:57:46;1.85;;;0.60;;
5981;SDS011;3018;48.730;9.336;2023-02-21T12:00:16;1.38;;;0.47;;
5981;SDS011;3018;48.730;9.336;2023-02-21T12:02:51;48.15;;;27.67;;
5981;SDS011;3018;48.730;9.336;2023-02-21T12:05:29;1.08;;;1.00;;
5981;SDS011;3018;48.730;9.336;2023-02-21T12:07:59;2.70;;;0.70;;
5981;SDS011;3018;48.730;9.336;2023-02-21T12:10:32;3.00;;;1.10;;
5981;SDS011;3018;48.730;9.336;2023-02-21T12:13:04;0.80;;;0.80;;
5981;SDS011;3018;48.730;9.336;2023-02-21T12:15:38;3.47;;;0.98;;
5981;SDS011;3018;48.730;9.336;2023-02-21T12:18:21;2.60;;;1.02;;
5981;SDS011;3018;48.730;9.336;2023-02-21T12:20:59;0.70;;;0.70;;
5981;SDS011;3018;48.730;9.336;2023-02-21T12:23:29;3.67;;;0.85;;
5981;SDS011;3018;48.730;9.336;2023-02-21T12:26:03;1.25;;;0.75;;
5981;SDS011;3018;48.730;9.336;2023-02-21T12:28:38;0.70;;;0.70;;
5981;SDS011;3018;48.730;9.336;2023-02-21T12:31:11;2.88;;;0.80;;
5981;SDS011;3018;48.730;9.336;2023-02-21T12:33:42;1.63;;;0.70;;
5981;SDS011;3018;48.730;9.336;2023-02-21T12:36:12;1.23;;;0.70;;
5981;SDS011;3018;48.730;9.336;2023-02-21T12:41:30;1.05;;;0.57;;
5981;SDS011;3018;48.730;9.336;2023-02-21T12:44:01;0.80;;;0.80;;
5981;SDS011;3018;48.730;9.336;2023-02-21T12:46:31;2.42;;;0.70;;
5981;SDS011;3018;48.730;9.336;2023-02-21T12:49:01;2.08;;;0.60;;
5981;SDS011;3018;48.730;9.336;2023-02-21T12:51:30;0.82;;;0.70;;
5981;SDS011;3018;48.730;9.336;2023-02-21T12:53:58;0.70;;;0.70;;
5981;SDS011;3018;48.730;9.336;2023-02-21T12:56:27;0.60;;;0.60;;
5981;SDS011;3018;48.730;9.336;2023-02-21T12:58:57;2.65;;;0.95;;
5981;SDS011;3018;48.730;9.336;2023-02-21T13:01:29;1.13;;;1.02;;
5981;SDS011;3018;48.730;9.336;2023-02-21T13:04:00;0.98;;;0.80;;
5981;SDS011;3018;48.730;9.336;2023-02-21T13:06:28;1.48;;;0.80;;
5981;SDS011;3018;48.730;9.336;2023-02-21T13:08:58;0.50;;;0.50;;
5981;SDS011;3018;48.730;9.336;2023-02-21T13:11:29;1.45;;;0.60;;
5981;SDS011;3018;48.730;9.336;2023-02-21T13:13:56;0.47;;;0.47;;
5981;SDS011;3018;48.730;9.336;2023-02-21T13:16:23;0.50;;;0.35;;
5981;SDS011;3018;48.730;9.336;2023-02-21T13:18:52;0.68;;;0.35;;
5981;SDS011;3018;48.730;9.336;2023-02-21T13:21:26;0.30;;;0.30;;
5981;SDS011;3018;48.730;9.336;2023-02-21T13:26:59;1.38;;;0.30;;
5981;SDS011;3018;48.730;9.336;2023-02-21T13:29:30;0.40;;;0.40;;
5981;SDS011;3018;48.730;9.336;2023-02-21T13:31:58;0.40;;;0.40;;
5981;SDS011;3018;48.730;9.336;2023-02-21T13:34:27;1.45;;;0.30;;
5981;SDS011;3018;48.730;9.336;2023-02-21T13:36:58;0.30;;;0.30;;
5981;SDS011;3018;48.730;9.336;2023-02-21T13:39:26;2.22;;;0.57;;
5981;SDS011;3018;48.730;9.336;2023-02-21T13:42:00;0.38;;;0.35;;
5981;SDS011;3018;48.730;9.336;2023-02-21T13:44:28;0.32;;;0.32;;
5981;SDS011;3018;48.730;9.336;2023-02-21T13:46:59;0.25;;;0.25;;
5981;SDS011;3018;48.730;9.336;2023-02-21T13:49:37;0.30;;;0.30;;
5981;SDS011;3018;48.730;9.336;2023-02-21T13:55:09;0.38;;;0.38;;
5981;SDS011;3018;48.730;9.336;2023-02-21T13:57:36;0.30;;;0.30;;
5981;SDS011;3018;48.730;9.336;2023-02-21T14:02:52;0.30;;;0.30;;
5981;SDS011;3018;48.730;9.336;2023-02-21T14:05:21;0.30;;;0.30;;
5981;SDS011;3018;48.730;9.336;2023-02-21T14:07:48;1.90;;;0.52;;
5981;SDS011;3018;48.730;9.336;2023-02-21T14:10:35;0.40;;;0.40;;
5981;SDS011;3018;48.730;9.336;2023-02-21T14:13:02;1.65;;;0.30;;
5981;SDS011;3018;48.730;9.336;2023-02-21T14:15:36;0.40;;;0.40;;
5981;SDS011;3018;48.730;9.336;2023-02-21T14:18:02;0.25;;;0.25;;
5981;SDS011;3018;48.730;9.336;2023-02-21T14:20:30;0.30;;;0.30;;
5981;SDS011;3018;48.730;9.336;2023-02-21T14:22:57;0.57;;;0.30;;
5981;SDS011;3018;48.730;9.336;2023-02-21T14:25:24;1.55;;;0.28;;
5981;SDS011;3018;48.730;9.336;2023-02-21T14:27:51;0.30;;;0.30;;
5981;SDS011;3018;48.730;9.336;2023-02-21T14:33:20;2.20;;;0.30;;
5981;SDS011;3018;48.730;9.336;2023-02-21T14:35:51;0.40;;;0.40;;
5981;SDS011;3018;48.730;9.336;2023-02-21T14:38:22;0.65;;;0.47;;
5981;SDS011;3018;48.730;9.336;2023-02-21T14:40:53;0.40;;;0.40;;
5981;SDS011;3018;48.730;9.336;2023-02-21T14:43:27;1.02;;;0.57;;
5981;SDS011;3018;48.730;9.336;2023-02-21T14:46:09;1.17;;;0.40;;
5981;SDS011;3018;48.730;9.336;2023-02-21T14:48:48;0.90;;;0.47;;
5981;SDS011;3018;48.730;9.336;2023-02-21T14:51:36;1.55;;;0.60;;
5981;SDS011;3018;48.730;9.336;2023-02-21T14:54:14;0.50;;;0.50;;
5981;SDS011;3018;48.730;9.336;2023-02-21T14:56:49;0.70;;;0.70;;
5981;SDS011;3018;48.730;9.336;2023-02-21T14:59:25;2.75;;;0.57;;
5981;SDS011;3018;48.730;9.336;2023-02-21T15:01:57;3.33;;;0.63;;
5981;SDS011;3018;48.730;9.336;2023-02-21T15:04:29;2.10;;;0.75;;
5981;SDS011;3018;48.730;9.336;2023-02-21T15:07:00;2.75;;;0.98;;
5981;SDS011;3018;48.730;9.336;2023-02-21T15:09:29;0.52;;;0.50;;
5981;SDS011;3018;48.730;9.336;2023-02-21T15:11:55;0.70;;;0.60;;
5981;SDS011;3018;48.730;9.336;2023-02-21T15:14:22;0.60;;;0.60;;
5981;SDS011;3018;48.730;9.336;2023-02-21T15:16:51;5.35;;;0.60;;
5981;SDS011;3018;48.730;9.336;2023-02-21T15:19:20;0.70;;;0.70;;
5981;SDS011;3018;48.730;9.336;2023-02-21T15:21:46;1.10;;;0.73;;
5981;SDS011;3018;48.730;9.336;2023-02-21T15:24:14;2.92;;;0.70;;
5981;SDS011;3018;48.730;9.336;2023-02-21T15:26:41;1.25;;;0.88;;
5981;SDS011;3018;48.730;9.336;2023-02-21T15:29:08;1.25;;;0.70;;
5981;SDS011;3018;48.730;9.336;2023-02-21T15:31:36;1.00;;;0.57;;
5981;SDS011;3018;48.730;9.336;2023-02-21T15:34:03;3.30;;;0.75;;
5981;SDS011;3018;48.730;9.336;2023-02-21T15:36:30;0.52;;;0.50;;
5981;SDS011;3018;48.730;9.336;2023-02-21T15:38:59;1.05;;;0.80;;
5981;SDS011;3018;48.730;9.336;2023-02-21T15:41:29;1.67;;;0.70;;
5981;SDS011;3018;48.730;9.336;2023-02-21T15:44:00;2.15;;;0.82;;
5981;SDS011;3018;48.730;9.336;2023-02-21T15:46:28;0.63;;;0.63;;
5981;SDS011;3018;48.730;9.336;2023-02-21T15:48:56;1.95;;;0.70;;
5981;SDS011;3018;48.730;9.336;2023-02-21T15:51:24;0.75;;;0.70;;
5981;SDS011;3018;48.730;9.336;2023-02-21T15:54:07;0.85;;;0.80;;